sensor_id;sensor_type;location;lat;lon;timestamp;pressure;altitude;pressure_sealevel;temperature
48894;BMP280;34710;35.798;139.446;2022-09-30T00:01:27;100815.77;;;32.14
48894;BMP280;34710;35.798;139.446;2022-09-30T00:03:57;100815.66;;;32.79
48894;BMP280;34710;35.798;139.446;2022-09-30T00:06:28;100815.75;;;32.60
48894;BMP280;34710;35.798;139.446;2022-09-30T00:08:58;100809.60;;;32.80
48894;BMP280;34710;35.798;139.446;2022-09-30T00:11:29;100809.11;;;32.95
48894;BMP280;34710;35.798;139.446;2022-09-30T00:13:58;100805.11;;;33.59
48894;BMP280;34710;35.798;139.446;2022-09-30T00:16:31;100804.76;;;33.10
48894;BMP280;34710;35.798;139.446;2022-09-30T00:19:02;100808.91;;;32.91
48894;BMP280;34710;35.798;139.446;2022-09-30T00:21:32;100811.90;;;33.51
48894;BMP280;34710;35.798;139.446;2022-09-30T00:24:02;100810.98;;;33.87
48894;BMP280;34710;35.798;139.446;2022-09-30T00:26:31;100805.12;;;33.72
48894;BMP280;34710;35.798;139.446;2022-09-30T00:29:01;100809.94;;;34.15
48894;BMP280;34710;35.798;139.446;2022-09-30T00:31:32;100812.07;;;34.68
48894;BMP280;34710;35.798;139.446;2022-09-30T00:34:01;100810.94;;;34.60
48894;BMP280;34710;35.798;139.446;2022-09-30T00:36:32;100808.14;;;34.48
48894;BMP280;34710;35.798;139.446;2022-09-30T00:39:02;100805.97;;;34.85
48894;BMP280;34710;35.798;139.446;2022-09-30T00:41:32;100806.98;;;34.82
48894;BMP280;34710;35.798;139.446;2022-09-30T00:44:37;100806.81;;;34.71
48894;BMP280;34710;35.798;139.446;2022-09-30T00:47:37;100800.78;;;34.92
48894;BMP280;34710;35.798;139.446;2022-09-30T00:50:19;100803.74;;;34.76
48894;BMP280;34710;35.798;139.446;2022-09-30T00:52:54;100809.67;;;34.83
48894;BMP280;34710;35.798;139.446;2022-09-30T00:55:30;100809.77;;;34.93
48894;BMP280;34710;35.798;139.446;2022-09-30T00:58:02;100806.18;;;35.64
48894;BMP280;34710;35.798;139.446;2022-09-30T01:00:33;100799.50;;;35.76
48894;BMP280;34710;35.798;139.446;2022-09-30T01:03:03;100796.97;;;36.17
48894;BMP280;34710;35.798;139.446;2022-09-30T01:05:34;100795.27;;;35.86
48894;BMP280;34710;35.798;139.446;2022-09-30T01:08:06;100793.31;;;35.84
48894;BMP280;34710;35.798;139.446;2022-09-30T01:10:37;100790.37;;;35.92
48894;BMP280;34710;35.798;139.446;2022-09-30T01:13:07;100788.48;;;35.51
48894;BMP280;34710;35.798;139.446;2022-09-30T01:15:46;100785.90;;;35.97
48894;BMP280;34710;35.798;139.446;2022-09-30T01:18:27;100786.94;;;36.10
48894;BMP280;34710;35.798;139.446;2022-09-30T01:22:11;100787.42;;;36.87
48894;BMP280;34710;35.798;139.446;2022-09-30T01:25:07;100788.13;;;37.11
48894;BMP280;34710;35.798;139.446;2022-09-30T01:27:53;100782.48;;;37.06
48894;BMP280;34710;35.798;139.446;2022-09-30T01:30:43;100782.08;;;37.68
48894;BMP280;34710;35.798;139.446;2022-09-30T01:33:24;100776.59;;;37.05
48894;BMP280;34710;35.798;139.446;2022-09-30T01:36:04;100776.82;;;33.96
48894;BMP280;34710;35.798;139.446;2022-09-30T01:38:45;100770.51;;;34.89
48894;BMP280;34710;35.798;139.446;2022-09-30T01:41:24;100769.30;;;35.90
48894;BMP280;34710;35.798;139.446;2022-09-30T01:44:00;100766.09;;;36.42
48894;BMP280;34710;35.798;139.446;2022-09-30T01:46:35;100767.76;;;36.88
48894;BMP280;34710;35.798;139.446;2022-09-30T01:49:11;100763.69;;;37.28
48894;BMP280;34710;35.798;139.446;2022-09-30T01:51:48;100758.17;;;37.72
48894;BMP280;34710;35.798;139.446;2022-09-30T01:54:26;100749.63;;;37.17
48894;BMP280;34710;35.798;139.446;2022-09-30T01:57:06;100749.11;;;37.65
48894;BMP280;34710;35.798;139.446;2022-09-30T01:59:42;100745.69;;;37.54
48894;BMP280;34710;35.798;139.446;2022-09-30T02:02:17;100741.75;;;37.45
48894;BMP280;34710;35.798;139.446;2022-09-30T02:04:52;100744.00;;;37.58
48894;BMP280;34710;35.798;139.446;2022-09-30T02:07:27;100744.19;;;38.01
48894;BMP280;34710;35.798;139.446;2022-09-30T02:10:01;100743.50;;;38.17
48894;BMP280;34710;35.798;139.446;2022-09-30T02:12:39;100746.25;;;38.38
48894;BMP280;34710;35.798;139.446;2022-09-30T02:15:13;100741.14;;;38.67
48894;BMP280;34710;35.798;139.446;2022-09-30T02:17:46;100737.79;;;38.72
48894;BMP280;34710;35.798;139.446;2022-09-30T02:20:23;100731.51;;;38.65
48894;BMP280;34710;35.798;139.446;2022-09-30T02:22:57;100727.13;;;38.68
48894;BMP280;34710;35.798;139.446;2022-09-30T02:25:34;100727.14;;;38.28
48894;BMP280;34710;35.798;139.446;2022-09-30T02:28:09;100722.60;;;38.60
48894;BMP280;34710;35.798;139.446;2022-09-30T02:30:44;100717.72;;;38.51
48894;BMP280;34710;35.798;139.446;2022-09-30T02:33:18;100711.07;;;37.80
48894;BMP280;34710;35.798;139.446;2022-09-30T02:35:51;100712.48;;;38.18
48894;BMP280;34710;35.798;139.446;2022-09-30T02:38:25;100708.81;;;38.22
48894;BMP280;34710;35.798;139.446;2022-09-30T02:41:00;100702.96;;;37.98
48894;BMP280;34710;35.798;139.446;2022-09-30T02:43:31;100700.77;;;38.10
48894;BMP280;34710;35.798;139.446;2022-09-30T02:46:06;100700.39;;;38.17
48894;BMP280;34710;35.798;139.446;2022-09-30T02:48:42;100698.06;;;38.40
48894;BMP280;34710;35.798;139.446;2022-09-30T02:51:17;100690.52;;;38.51
48894;BMP280;34710;35.798;139.446;2022-09-30T02:53:55;100694.27;;;38.09
48894;BMP280;34710;35.798;139.446;2022-09-30T02:56:37;100688.20;;;38.09
48894;BMP280;34710;35.798;139.446;2022-09-30T02:59:11;100684.91;;;38.48
48894;BMP280;34710;35.798;139.446;2022-09-30T03:01:40;100683.86;;;38.12
48894;BMP280;34710;35.798;139.446;2022-09-30T03:04:18;100678.60;;;38.00
48894;BMP280;34710;35.798;139.446;2022-09-30T03:06:52;100683.40;;;37.69
48894;BMP280;34710;35.798;139.446;2022-09-30T03:09:28;100677.46;;;38.37
48894;BMP280;34710;35.798;139.446;2022-09-30T03:12:09;100676.90;;;39.18
48894;BMP280;34710;35.798;139.446;2022-09-30T03:14:57;100670.88;;;39.05
48894;BMP280;34710;35.798;139.446;2022-09-30T03:17:49;100664.82;;;38.24
48894;BMP280;34710;35.798;139.446;2022-09-30T03:20:37;100658.82;;;39.61
48894;BMP280;34710;35.798;139.446;2022-09-30T03:23:34;100653.62;;;39.46
48894;BMP280;34710;35.798;139.446;2022-09-30T03:26:16;100650.14;;;38.97
48894;BMP280;34710;35.798;139.446;2022-09-30T03:28:58;100643.53;;;38.36
48894;BMP280;34710;35.798;139.446;2022-09-30T03:31:40;100638.44;;;37.77
48894;BMP280;34710;35.798;139.446;2022-09-30T03:34:20;100626.70;;;38.05
48894;BMP280;34710;35.798;139.446;2022-09-30T03:36:57;100625.32;;;36.02
48894;BMP280;34710;35.798;139.446;2022-09-30T03:39:36;100620.16;;;36.63
48894;BMP280;34710;35.798;139.446;2022-09-30T03:42:13;100622.56;;;36.50
48894;BMP280;34710;35.798;139.446;2022-09-30T03:44:48;100619.44;;;36.10
48894;BMP280;34710;35.798;139.446;2022-09-30T03:47:25;100616.26;;;36.64
48894;BMP280;34710;35.798;139.446;2022-09-30T03:49:59;100609.80;;;36.17
48894;BMP280;34710;35.798;139.446;2022-09-30T03:52:30;100614.87;;;36.44
48894;BMP280;34710;35.798;139.446;2022-09-30T03:55:03;100609.23;;;37.11
48894;BMP280;34710;35.798;139.446;2022-09-30T03:57:33;100603.69;;;37.23
48894;BMP280;34710;35.798;139.446;2022-09-30T04:00:04;100602.94;;;36.97
48894;BMP280;34710;35.798;139.446;2022-09-30T04:02:33;100601.07;;;37.42
48894;BMP280;34710;35.798;139.446;2022-09-30T04:05:03;100594.53;;;37.26
48894;BMP280;34710;35.798;139.446;2022-09-30T04:07:32;100589.26;;;37.81
48894;BMP280;34710;35.798;139.446;2022-09-30T04:10:02;100582.58;;;37.70
48894;BMP280;34710;35.798;139.446;2022-09-30T04:12:31;100580.51;;;38.02
48894;BMP280;34710;35.798;139.446;2022-09-30T04:15:01;100575.78;;;36.23
48894;BMP280;34710;35.798;139.446;2022-09-30T04:17:30;100576.91;;;36.71
48894;BMP280;34710;35.798;139.446;2022-09-30T04:19:59;100575.99;;;36.94
48894;BMP280;34710;35.798;139.446;2022-09-30T04:22:28;100575.17;;;36.14
48894;BMP280;34710;35.798;139.446;2022-09-30T04:24:57;100565.85;;;36.74
48894;BMP280;34710;35.798;139.446;2022-09-30T04:27:27;100572.00;;;36.79
48894;BMP280;34710;35.798;139.446;2022-09-30T04:29:56;100571.90;;;37.42
48894;BMP280;34710;35.798;139.446;2022-09-30T04:32:26;100574.46;;;36.72
48894;BMP280;34710;35.798;139.446;2022-09-30T04:34:55;100569.62;;;36.89
48894;BMP280;34710;35.798;139.446;2022-09-30T04:37:24;100558.64;;;35.61
48894;BMP280;34710;35.798;139.446;2022-09-30T04:39:53;100565.18;;;33.38
48894;BMP280;34710;35.798;139.446;2022-09-30T04:42:24;100560.14;;;34.04
48894;BMP280;34710;35.798;139.446;2022-09-30T04:44:53;100556.17;;;34.15
48894;BMP280;34710;35.798;139.446;2022-09-30T04:47:23;100558.51;;;35.29
48894;BMP280;34710;35.798;139.446;2022-09-30T04:49:52;100555.75;;;35.89
48894;BMP280;34710;35.798;139.446;2022-09-30T04:52:22;100555.30;;;36.06
48894;BMP280;34710;35.798;139.446;2022-09-30T04:54:51;100551.33;;;35.61
48894;BMP280;34710;35.798;139.446;2022-09-30T04:57:22;100549.68;;;36.02
48894;BMP280;34710;35.798;139.446;2022-09-30T04:59:51;100547.22;;;35.45
48894;BMP280;34710;35.798;139.446;2022-09-30T05:02:21;100546.87;;;35.30
48894;BMP280;34710;35.798;139.446;2022-09-30T05:04:50;100549.94;;;33.51
48894;BMP280;34710;35.798;139.446;2022-09-30T05:07:20;100554.08;;;33.52
48894;BMP280;34710;35.798;139.446;2022-09-30T05:09:49;100552.56;;;33.98
48894;BMP280;34710;35.798;139.446;2022-09-30T05:12:18;100554.16;;;33.23
48894;BMP280;34710;35.798;139.446;2022-09-30T05:14:48;100552.13;;;33.80
48894;BMP280;34710;35.798;139.446;2022-09-30T05:17:17;100551.42;;;34.20
48894;BMP280;34710;35.798;139.446;2022-09-30T05:19:46;100550.14;;;34.39
48894;BMP280;34710;35.798;139.446;2022-09-30T05:22:16;100546.35;;;34.89
48894;BMP280;34710;35.798;139.446;2022-09-30T05:24:46;100548.67;;;35.18
48894;BMP280;34710;35.798;139.446;2022-09-30T05:27:15;100550.89;;;35.33
48894;BMP280;34710;35.798;139.446;2022-09-30T05:29:44;100557.78;;;35.67
48894;BMP280;34710;35.798;139.446;2022-09-30T05:32:14;100559.07;;;36.25
48894;BMP280;34710;35.798;139.446;2022-09-30T05:34:44;100558.09;;;35.28
48894;BMP280;34710;35.798;139.446;2022-09-30T05:37:13;100558.49;;;36.22
48894;BMP280;34710;35.798;139.446;2022-09-30T05:39:42;100555.34;;;36.60
48894;BMP280;34710;35.798;139.446;2022-09-30T05:42:12;100559.61;;;36.84
48894;BMP280;34710;35.798;139.446;2022-09-30T05:44:41;100562.90;;;36.10
48894;BMP280;34710;35.798;139.446;2022-09-30T05:47:10;100567.92;;;36.54
48894;BMP280;34710;35.798;139.446;2022-09-30T05:49:40;100573.12;;;36.38
48894;BMP280;34710;35.798;139.446;2022-09-30T05:52:09;100571.31;;;36.87
48894;BMP280;34710;35.798;139.446;2022-09-30T05:54:39;100574.11;;;36.23
48894;BMP280;34710;35.798;139.446;2022-09-30T05:57:08;100570.95;;;36.54
48894;BMP280;34710;35.798;139.446;2022-09-30T05:59:38;100577.97;;;36.70
48894;BMP280;34710;35.798;139.446;2022-09-30T06:02:08;100577.96;;;36.23
48894;BMP280;34710;35.798;139.446;2022-09-30T06:04:38;100578.69;;;36.53
48894;BMP280;34710;35.798;139.446;2022-09-30T06:07:08;100577.65;;;36.52
48894;BMP280;34710;35.798;139.446;2022-09-30T06:09:38;100577.01;;;36.47
48894;BMP280;34710;35.798;139.446;2022-09-30T06:12:08;100579.99;;;36.70
48894;BMP280;34710;35.798;139.446;2022-09-30T06:14:37;100582.43;;;36.81
48894;BMP280;34710;35.798;139.446;2022-09-30T06:17:07;100583.75;;;36.95
48894;BMP280;34710;35.798;139.446;2022-09-30T06:19:36;100579.12;;;34.40
48894;BMP280;34710;35.798;139.446;2022-09-30T06:22:06;100575.71;;;34.05
48894;BMP280;34710;35.798;139.446;2022-09-30T06:24:35;100576.49;;;33.76
48894;BMP280;34710;35.798;139.446;2022-09-30T06:27:05;100574.88;;;34.13
48894;BMP280;34710;35.798;139.446;2022-09-30T06:29:35;100573.01;;;34.69
48894;BMP280;34710;35.798;139.446;2022-09-30T06:32:05;100573.23;;;35.13
48894;BMP280;34710;35.798;139.446;2022-09-30T06:34:34;100570.86;;;34.88
48894;BMP280;34710;35.798;139.446;2022-09-30T06:37:03;100574.60;;;35.44
48894;BMP280;34710;35.798;139.446;2022-09-30T06:39:32;100575.02;;;35.66
48894;BMP280;34710;35.798;139.446;2022-09-30T06:42:02;100574.23;;;35.60
48894;BMP280;34710;35.798;139.446;2022-09-30T06:44:31;100571.01;;;35.79
48894;BMP280;34710;35.798;139.446;2022-09-30T06:47:01;100568.80;;;35.08
48894;BMP280;34710;35.798;139.446;2022-09-30T06:49:30;100572.57;;;35.41
48894;BMP280;34710;35.798;139.446;2022-09-30T06:52:00;100573.89;;;35.52
48894;BMP280;34710;35.798;139.446;2022-09-30T06:54:28;100575.59;;;35.44
48894;BMP280;34710;35.798;139.446;2022-09-30T06:56:58;100573.85;;;35.72
48894;BMP280;34710;35.798;139.446;2022-09-30T06:59:28;100574.01;;;35.08
48894;BMP280;34710;35.798;139.446;2022-09-30T07:01:57;100573.42;;;35.66
48894;BMP280;34710;35.798;139.446;2022-09-30T07:04:26;100572.50;;;35.08
48894;BMP280;34710;35.798;139.446;2022-09-30T07:06:55;100569.61;;;35.43
48894;BMP280;34710;35.798;139.446;2022-09-30T07:09:24;100569.82;;;34.70
48894;BMP280;34710;35.798;139.446;2022-09-30T07:11:53;100569.49;;;34.44
48894;BMP280;34710;35.798;139.446;2022-09-30T07:14:24;100571.48;;;34.43
48894;BMP280;34710;35.798;139.446;2022-09-30T07:16:53;100572.22;;;34.49
48894;BMP280;34710;35.798;139.446;2022-09-30T07:19:23;100569.10;;;34.17
48894;BMP280;34710;35.798;139.446;2022-09-30T07:21:52;100566.86;;;33.14
48894;BMP280;34710;35.798;139.446;2022-09-30T07:24:21;100563.40;;;33.67
48894;BMP280;34710;35.798;139.446;2022-09-30T07:26:50;100564.88;;;33.96
48894;BMP280;34710;35.798;139.446;2022-09-30T07:29:20;100566.99;;;34.14
48894;BMP280;34710;35.798;139.446;2022-09-30T07:31:49;100566.55;;;33.83
48894;BMP280;34710;35.798;139.446;2022-09-30T07:34:19;100565.25;;;33.31
48894;BMP280;34710;35.798;139.446;2022-09-30T07:36:48;100565.04;;;33.52
48894;BMP280;34710;35.798;139.446;2022-09-30T07:39:17;100568.58;;;33.34
48894;BMP280;34710;35.798;139.446;2022-09-30T07:41:47;100569.10;;;33.61
48894;BMP280;34710;35.798;139.446;2022-09-30T07:44:16;100568.99;;;33.38
48894;BMP280;34710;35.798;139.446;2022-09-30T07:46:45;100569.92;;;33.24
48894;BMP280;34710;35.798;139.446;2022-09-30T07:49:16;100569.43;;;33.33
48894;BMP280;34710;35.798;139.446;2022-09-30T07:51:46;100569.60;;;33.38
48894;BMP280;34710;35.798;139.446;2022-09-30T07:54:18;100571.82;;;33.22
48894;BMP280;34710;35.798;139.446;2022-09-30T07:56:48;100574.12;;;33.38
48894;BMP280;34710;35.798;139.446;2022-09-30T07:59:18;100572.04;;;33.25
48894;BMP280;34710;35.798;139.446;2022-09-30T08:01:48;100568.55;;;33.06
48894;BMP280;34710;35.798;139.446;2022-09-30T08:04:21;100568.02;;;32.65
48894;BMP280;34710;35.798;139.446;2022-09-30T08:06:52;100573.36;;;32.52
48894;BMP280;34710;35.798;139.446;2022-09-30T08:09:25;100575.23;;;32.69
48894;BMP280;34710;35.798;139.446;2022-09-30T08:11:54;100577.54;;;32.66
48894;BMP280;34710;35.798;139.446;2022-09-30T08:14:26;100576.40;;;32.52
48894;BMP280;34710;35.798;139.446;2022-09-30T08:16:55;100575.92;;;32.35
48894;BMP280;34710;35.798;139.446;2022-09-30T08:19:25;100581.13;;;32.03
48894;BMP280;34710;35.798;139.446;2022-09-30T08:21:55;100580.22;;;32.28
48894;BMP280;34710;35.798;139.446;2022-09-30T08:24:25;100580.03;;;31.56
48894;BMP280;34710;35.798;139.446;2022-09-30T08:26:54;100580.36;;;31.49
48894;BMP280;34710;35.798;139.446;2022-09-30T08:29:25;100582.00;;;31.43
48894;BMP280;34710;35.798;139.446;2022-09-30T08:31:55;100578.96;;;31.60
48894;BMP280;34710;35.798;139.446;2022-09-30T08:34:25;100576.73;;;31.25
48894;BMP280;34710;35.798;139.446;2022-09-30T08:36:54;100584.09;;;31.08
48894;BMP280;34710;35.798;139.446;2022-09-30T08:39:24;100584.07;;;31.06
48894;BMP280;34710;35.798;139.446;2022-09-30T08:42:04;100583.16;;;31.08
48894;BMP280;34710;35.798;139.446;2022-09-30T08:44:42;100586.38;;;31.05
48894;BMP280;34710;35.798;139.446;2022-09-30T08:47:24;100585.86;;;30.98
48894;BMP280;34710;35.798;139.446;2022-09-30T08:50:04;100586.60;;;30.63
48894;BMP280;34710;35.798;139.446;2022-09-30T08:52:39;100583.81;;;30.81
48894;BMP280;34710;35.798;139.446;2022-09-30T08:55:19;100583.70;;;30.92
48894;BMP280;34710;35.798;139.446;2022-09-30T08:57:50;100589.07;;;30.82
48894;BMP280;34710;35.798;139.446;2022-09-30T09:00:21;100592.48;;;30.57
48894;BMP280;34710;35.798;139.446;2022-09-30T09:02:52;100599.04;;;30.37
48894;BMP280;34710;35.798;139.446;2022-09-30T09:05:34;100605.39;;;28.94
48894;BMP280;34710;35.798;139.446;2022-09-30T09:08:14;100608.45;;;29.69
48894;BMP280;34710;35.798;139.446;2022-09-30T09:10:52;100614.52;;;29.21
48894;BMP280;34710;35.798;139.446;2022-09-30T09:13:38;100619.92;;;29.30
48894;BMP280;34710;35.798;139.446;2022-09-30T09:16:18;100622.50;;;29.86
48894;BMP280;34710;35.798;139.446;2022-09-30T09:18:57;100626.07;;;29.68
48894;BMP280;34710;35.798;139.446;2022-09-30T09:21:37;100629.87;;;29.54
48894;BMP280;34710;35.798;139.446;2022-09-30T09:24:15;100632.94;;;30.37
48894;BMP280;34710;35.798;139.446;2022-09-30T09:26:47;100637.59;;;29.90
48894;BMP280;34710;35.798;139.446;2022-09-30T09:29:31;100639.16;;;29.72
48894;BMP280;34710;35.798;139.446;2022-09-30T09:32:10;100643.28;;;29.76
48894;BMP280;34710;35.798;139.446;2022-09-30T09:34:41;100646.34;;;29.66
48894;BMP280;34710;35.798;139.446;2022-09-30T09:37:16;100653.29;;;29.40
48894;BMP280;34710;35.798;139.446;2022-09-30T09:39:58;100650.92;;;29.45
48894;BMP280;34710;35.798;139.446;2022-09-30T09:42:48;100659.67;;;29.44
48894;BMP280;34710;35.798;139.446;2022-09-30T09:45:27;100667.90;;;29.30
48894;BMP280;34710;35.798;139.446;2022-09-30T09:47:59;100676.39;;;28.54
48894;BMP280;34710;35.798;139.446;2022-09-30T09:50:37;100680.42;;;28.71
48894;BMP280;34710;35.798;139.446;2022-09-30T09:53:21;100680.64;;;28.81
48894;BMP280;34710;35.798;139.446;2022-09-30T09:55:55;100683.59;;;28.96
48894;BMP280;34710;35.798;139.446;2022-09-30T09:58:25;100686.52;;;28.51
48894;BMP280;34710;35.798;139.446;2022-09-30T10:01:09;100686.68;;;29.13
48894;BMP280;34710;35.798;139.446;2022-09-30T10:03:38;100686.35;;;28.87
48894;BMP280;34710;35.798;139.446;2022-09-30T10:06:09;100688.34;;;29.08
48894;BMP280;34710;35.798;139.446;2022-09-30T10:08:52;100688.54;;;28.60
48894;BMP280;34710;35.798;139.446;2022-09-30T10:11:24;100696.79;;;28.67
48894;BMP280;34710;35.798;139.446;2022-09-30T10:13:57;100702.72;;;29.02
48894;BMP280;34710;35.798;139.446;2022-09-30T10:16:30;100707.77;;;28.41
48894;BMP280;34710;35.798;139.446;2022-09-30T10:19:00;100710.83;;;29.28
48894;BMP280;34710;35.798;139.446;2022-09-30T10:21:31;100717.17;;;29.17
48894;BMP280;34710;35.798;139.446;2022-09-30T10:24:23;100722.46;;;29.23
48894;BMP280;34710;35.798;139.446;2022-09-30T10:26:55;100722.19;;;29.12
48894;BMP280;34710;35.798;139.446;2022-09-30T10:29:28;100725.62;;;29.17
48894;BMP280;34710;35.798;139.446;2022-09-30T10:31:58;100729.89;;;29.04
48894;BMP280;34710;35.798;139.446;2022-09-30T10:34:29;100734.96;;;28.47
48894;BMP280;34710;35.798;139.446;2022-09-30T10:37:07;100741.26;;;28.96
48894;BMP280;34710;35.798;139.446;2022-09-30T10:39:39;100744.11;;;28.28
48894;BMP280;34710;35.798;139.446;2022-09-30T10:42:17;100753.79;;;29.01
48894;BMP280;34710;35.798;139.446;2022-09-30T10:44:51;100756.56;;;28.98
48894;BMP280;34710;35.798;139.446;2022-09-30T10:47:23;100760.05;;;29.50
48894;BMP280;34710;35.798;139.446;2022-09-30T10:49:56;100760.16;;;28.79
48894;BMP280;34710;35.798;139.446;2022-09-30T10:52:31;100761.20;;;29.15
48894;BMP280;34710;35.798;139.446;2022-09-30T10:55:06;100763.34;;;28.61
48894;BMP280;34710;35.798;139.446;2022-09-30T10:57:37;100768.69;;;28.58
48894;BMP280;34710;35.798;139.446;2022-09-30T11:00:11;100772.46;;;28.85
48894;BMP280;34710;35.798;139.446;2022-09-30T11:02:45;100775.04;;;28.52
48894;BMP280;34710;35.798;139.446;2022-09-30T11:05:18;100772.27;;;28.37
48894;BMP280;34710;35.798;139.446;2022-09-30T11:07:53;100772.47;;;27.99
48894;BMP280;34710;35.798;139.446;2022-09-30T11:10:32;100774.56;;;27.75
48894;BMP280;34710;35.798;139.446;2022-09-30T11:13:09;100777.24;;;27.57
48894;BMP280;34710;35.798;139.446;2022-09-30T11:15:47;100779.31;;;28.07
48894;BMP280;34710;35.798;139.446;2022-09-30T11:18:33;100774.77;;;27.33
48894;BMP280;34710;35.798;139.446;2022-09-30T11:21:08;100777.45;;;27.99
48894;BMP280;34710;35.798;139.446;2022-09-30T11:23:46;100780.21;;;28.09
48894;BMP280;34710;35.798;139.446;2022-09-30T11:26:29;100780.31;;;27.47
48894;BMP280;34710;35.798;139.446;2022-09-30T11:29:13;100784.59;;;27.71
48894;BMP280;34710;35.798;139.446;2022-09-30T11:31:50;100787.46;;;27.57
48894;BMP280;34710;35.798;139.446;2022-09-30T11:34:35;100789.60;;;26.60
48894;BMP280;34710;35.798;139.446;2022-09-30T11:37:13;100794.32;;;27.67
48894;BMP280;34710;35.798;139.446;2022-09-30T11:40:00;100795.73;;;27.80
48894;BMP280;34710;35.798;139.446;2022-09-30T11:42:36;100796.84;;;28.00
48894;BMP280;34710;35.798;139.446;2022-09-30T11:45:20;100793.79;;;28.12
48894;BMP280;34710;35.798;139.446;2022-09-30T11:48:11;100790.99;;;28.13
48894;BMP280;34710;35.798;139.446;2022-09-30T11:50:53;100790.53;;;28.01
48894;BMP280;34710;35.798;139.446;2022-09-30T11:53:34;100791.07;;;27.91
48894;BMP280;34710;35.798;139.446;2022-09-30T11:56:16;100792.58;;;28.14
48894;BMP280;34710;35.798;139.446;2022-09-30T11:58:52;100787.74;;;27.90
48894;BMP280;34710;35.798;139.446;2022-09-30T12:01:28;100789.00;;;27.78
48894;BMP280;34710;35.798;139.446;2022-09-30T12:04:02;100787.47;;;27.60
48894;BMP280;34710;35.798;139.446;2022-09-30T12:06:36;100786.65;;;27.50
48894;BMP280;34710;35.798;139.446;2022-09-30T12:09:15;100791.12;;;27.60
48894;BMP280;34710;35.798;139.446;2022-09-30T12:11:51;100796.39;;;27.79
48894;BMP280;34710;35.798;139.446;2022-09-30T12:14:26;100794.81;;;27.67
48894;BMP280;34710;35.798;139.446;2022-09-30T12:17:01;100789.60;;;27.62
48894;BMP280;34710;35.798;139.446;2022-09-30T12:19:38;100788.08;;;27.06
48894;BMP280;34710;35.798;139.446;2022-09-30T12:22:15;100786.74;;;27.34
48894;BMP280;34710;35.798;139.446;2022-09-30T12:24:46;100783.75;;;26.92
48894;BMP280;34710;35.798;139.446;2022-09-30T12:27:20;100785.52;;;27.19
48894;BMP280;34710;35.798;139.446;2022-09-30T12:29:57;100788.24;;;27.15
48894;BMP280;34710;35.798;139.446;2022-09-30T12:33:24;100791.29;;;28.00
48894;BMP280;34710;35.798;139.446;2022-09-30T12:36:36;100799.78;;;26.81
48894;BMP280;34710;35.798;139.446;2022-09-30T12:39:51;100798.26;;;26.81
48894;BMP280;34710;35.798;139.446;2022-09-30T12:42:38;100797.15;;;26.56
48894;BMP280;34710;35.798;139.446;2022-09-30T12:45:56;100796.50;;;27.53
48894;BMP280;34710;35.798;139.446;2022-09-30T12:48:36;100796.80;;;26.51
48894;BMP280;34710;35.798;139.446;2022-09-30T12:51:07;100797.74;;;27.06
48894;BMP280;34710;35.798;139.446;2022-09-30T12:53:37;100794.34;;;26.94
48894;BMP280;34710;35.798;139.446;2022-09-30T12:56:11;100792.06;;;26.94
48894;BMP280;34710;35.798;139.446;2022-09-30T12:58:43;100789.71;;;26.89
48894;BMP280;34710;35.798;139.446;2022-09-30T13:01:18;100789.89;;;26.67
48894;BMP280;34710;35.798;139.446;2022-09-30T13:03:52;100785.72;;;26.46
48894;BMP280;34710;35.798;139.446;2022-09-30T13:07:11;100785.32;;;26.42
48894;BMP280;34710;35.798;139.446;2022-09-30T13:09:59;100783.49;;;26.41
48894;BMP280;34710;35.798;139.446;2022-09-30T13:12:40;100786.20;;;26.20
48894;BMP280;34710;35.798;139.446;2022-09-30T13:15:38;100787.05;;;26.62
48894;BMP280;34710;35.798;139.446;2022-09-30T13:19:20;100790.84;;;27.25
48894;BMP280;34710;35.798;139.446;2022-09-30T13:21:49;100792.92;;;26.25
48894;BMP280;34710;35.798;139.446;2022-09-30T13:24:19;100793.88;;;26.23
48894;BMP280;34710;35.798;139.446;2022-09-30T13:27:35;100787.47;;;26.06
48894;BMP280;34710;35.798;139.446;2022-09-30T13:30:32;100782.76;;;26.40
48894;BMP280;34710;35.798;139.446;2022-09-30T13:34:08;100778.12;;;26.92
48894;BMP280;34710;35.798;139.446;2022-09-30T13:36:55;100781.12;;;26.31
48894;BMP280;34710;35.798;139.446;2022-09-30T13:39:28;100781.57;;;25.89
48894;BMP280;34710;35.798;139.446;2022-09-30T13:42:05;100780.60;;;26.22
48894;BMP280;34710;35.798;139.446;2022-09-30T13:44:43;100778.02;;;25.99
48894;BMP280;34710;35.798;139.446;2022-09-30T13:47:20;100775.54;;;26.11
48894;BMP280;34710;35.798;139.446;2022-09-30T13:49:59;100772.04;;;26.13
48894;BMP280;34710;35.798;139.446;2022-09-30T13:52:34;100768.84;;;25.92
48894;BMP280;34710;35.798;139.446;2022-09-30T13:55:13;100767.34;;;25.94
48894;BMP280;34710;35.798;139.446;2022-09-30T13:57:53;100764.63;;;25.70
48894;BMP280;34710;35.798;139.446;2022-09-30T14:00:44;100762.04;;;25.74
48894;BMP280;34710;35.798;139.446;2022-09-30T14:03:30;100763.74;;;25.92
48894;BMP280;34710;35.798;139.446;2022-09-30T14:06:15;100761.41;;;25.96
48894;BMP280;34710;35.798;139.446;2022-09-30T14:09:02;100756.93;;;25.67
48894;BMP280;34710;35.798;139.446;2022-09-30T14:12:02;100757.07;;;25.52
48894;BMP280;34710;35.798;139.446;2022-09-30T14:15:01;100751.86;;;25.53
48894;BMP280;34710;35.798;139.446;2022-09-30T14:17:45;100754.72;;;25.81
48894;BMP280;34710;35.798;139.446;2022-09-30T14:20:30;100758.68;;;25.59